KBURKPSP

Guest
Details From KBUR - BOB HOPE
To KPSP - Palm Springs Intl
Flight Number -
Tags generated
Created
Modified
Stats Distance 95 nm / 176 km
Max Altitude 9,400 ft / 2,865 m
Waypoints 3
Social Downloads 0
Likes 0
Share VATSIM

Download

Looking for another format? Having issues loading an existing format? Contact us
Advertisement - Login to hide

Notes

Basic altitude profile: - Ascent Rate: 500ft/min - Ascent Speed: 45kts - Cruise Altitude: 2500ft - Cruise Speed: 85kts - Descent Rate: 250ft/min - Descent Speed: 45kts Options: - Use NATs: yes - Use PACOTS: yes - Use low airways: yes - Use high airways: yes

Route

KBUR POM KPSP

ID Type Via Altitude Latitude Longitude Leg Dist Tot Dist Heading (true) Name
O KBUR APT - 0 ft / 0 m 34.20048˚ -118.35877˚ - 0 nm - BOB HOPE
POM VOR - 9,400 ft / 2,865 m 34.07839˚ -117.78708˚ 29 nm 29 nm 104° / 105° POMONA VORTAC
O KPSP APT - 0 ft / 0 m 33.82968˚ -116.50622˚ 65 nm 94 nm 103° / 104° Palm Springs Intl

Altitude Profile

Advertisement - Login to hide

KBUR

Details ICAO KBUR (BUR)
Name BOB HOPE
Region United States
Timezone America/Los_Angeles (UTC-7.0)
Stats Elevation 778 ft / 237 m (AMSL)
Location 34.200475° -118.358767°
Runways 2
Magnetic Variation 12.008° E

METAR

KBUR 240553Z 15006KT 10SM BKN027 14/12 A3002 RMK AO2 SLP158 T01440117 10206 20144 51017

Decode

TAF

KBUR 240523Z 2406/2506 16006KT P6SM SCT025 FM240900 16006KT P6SM BKN025 FM241200 VRB03KT 6SM -DZ BR BKN015 OVC025 FM241700 17008KT P6SM SCT015 OVC025 FM242100 17010KT P6SM BKN035 FM250300 16008KT P6SM OVC025

Decode

Departure Runways

ID Width Length Bearing (true) Bearing (mag) Surface Threshold Offset Overrun Length
08 151 ft / 46 m 5,835 ft / 1,779 m 90.92° 78.91° Asphalt 0 ft / 0 m 259 ft / 79 m
15 151 ft / 46 m 6,962 ft / 2,122 m 167.12° 155.11° Asphalt 909 ft / 277 m 0 ft / 0 m
26 151 ft / 46 m 5,835 ft / 1,779 m 270.93° 258.92° Asphalt 0 ft / 0 m 253 ft / 77 m
33 151 ft / 46 m 6,962 ft / 2,122 m 347.12° 335.11° Asphalt 351 ft / 107 m 0 ft / 0 m

KPSP

Details ICAO KPSP (PSP)
Name Palm Springs Intl
Region United States
Timezone America/Los_Angeles (UTC-7.0)
Stats Elevation 477 ft / 145 m (AMSL)
Location 33.829677° -116.506218°
Runways 2
Magnetic Variation 11.541° E

METAR

KPSP 240553Z AUTO 31008KT 10SM CLR 25/11 A2989 RMK AO2 SLP118 T02500111 10333 20250 51021

Decode

TAF

TAF KPSP 240520Z 2406/2506 32010KT P6SM SKC FM240700 VRB06KT P6SM SKC FM242300 33012G20KT P6SM SKC

Decode

Destination Runways

ID Width Length Bearing (true) Bearing (mag) Surface Threshold Offset Overrun Length
13L 75 ft / 23 m 4,958 ft / 1,511 m 143.52° 131.98° Asphalt 0 ft / 0 m 151 ft / 46 m
13R 151 ft / 46 m 10,012 ft / 3,052 m 143.52° 131.98° Asphalt 2,999 ft / 914 m 200 ft / 61 m
31L 151 ft / 46 m 10,012 ft / 3,052 m 323.53° 311.99° Asphalt 1,499 ft / 457 m 200 ft / 61 m
31R 75 ft / 23 m 4,958 ft / 1,511 m 323.53° 311.99° Asphalt 0 ft / 0 m 151 ft / 46 m

Popular Alternatives